KP58

Port Hope Airport

Port Hope, Michigan, USA
METAR KP58 162251Z AUTO 30003KT M07/M14 A3029 RMK AO1 SLP270 T10721139
Observed Flight Rules
Jan-16 @ 22:51 UTC (34 minutes ago)
Wind
300° at 3 knots
Temperatures Readings
Current -7°C / 19°F
Dewpoint -14°C / 7°F
Humidity 58%
Altimeter 30.29" Hg
Pressure 1027 hPa
Elevation 179
METAR KP58 162251Z AUTO 30003KT M07/M14 A3029 RMK AO1 SLP270 T10721139
Observed Flight Rules
Jan-16 @ 22:51 UTC
(34 minutes ago)
Wind
300° at 3 knots
Temperature Dewpoint
-7°C / 19°F -14°C / 7°F
Humidity Altimeter Pressure
58% 30.29" Hg 1027 hPa